createdAt,value
2018-12-31T00:02:12.950Z,7.50
2018-12-31T00:04:57.845Z,7.50
2018-12-31T00:07:42.644Z,7.50
2018-12-31T00:10:27.429Z,7.60
2018-12-31T00:13:12.382Z,7.60
2018-12-31T00:15:57.199Z,7.50
2018-12-31T00:18:41.935Z,7.60
2018-12-31T00:21:26.554Z,7.60
2018-12-31T00:24:11.627Z,7.50
2018-12-31T00:26:56.498Z,7.60
2018-12-31T00:29:41.254Z,7.60
2018-12-31T00:32:26.075Z,7.60
2018-12-31T00:35:10.948Z,7.60
2018-12-31T00:37:55.410Z,7.60
2018-12-31T00:40:40.005Z,7.60
2018-12-31T00:43:24.682Z,7.60
2018-12-31T00:46:09.662Z,7.60
2018-12-31T00:48:54.668Z,7.60
2018-12-31T00:51:39.885Z,7.60
2018-12-31T00:54:24.771Z,7.60
2018-12-31T00:57:09.364Z,7.60
2018-12-31T00:59:53.999Z,7.60
2018-12-31T01:02:38.458Z,7.50
2018-12-31T01:05:23.114Z,7.60
2018-12-31T01:08:07.856Z,7.60
2018-12-31T01:10:52.288Z,7.60
2018-12-31T01:13:37.398Z,7.60
2018-12-31T01:16:22.039Z,7.60
2018-12-31T01:19:07.343Z,7.60
2018-12-31T01:21:51.948Z,7.60
2018-12-31T01:24:36.506Z,7.60
2018-12-31T01:27:21.642Z,7.60
2018-12-31T01:30:06.812Z,7.70
2018-12-31T01:32:51.596Z,7.60
2018-12-31T01:35:36.418Z,7.70
2018-12-31T01:38:20.924Z,7.60
2018-12-31T01:41:05.646Z,7.70
2018-12-31T01:43:50.682Z,7.70
2018-12-31T01:46:35.182Z,7.70
2018-12-31T01:49:20.376Z,7.70
2018-12-31T01:52:05.186Z,7.70
2018-12-31T01:54:49.817Z,7.70
2018-12-31T01:57:34.869Z,7.70
2018-12-31T02:00:19.986Z,7.70
2018-12-31T02:03:04.561Z,7.70
2018-12-31T02:05:49.431Z,7.70
2018-12-31T02:08:34.375Z,7.70
2018-12-31T02:11:18.907Z,7.80
2018-12-31T02:14:03.399Z,7.80
2018-12-31T02:16:47.992Z,7.80
2018-12-31T02:19:32.532Z,7.80
2018-12-31T02:22:17.576Z,7.80
2018-12-31T02:25:02.544Z,7.80
2018-12-31T02:27:47.465Z,7.90
2018-12-31T02:30:32.151Z,7.90
2018-12-31T02:33:16.741Z,7.90
2018-12-31T02:36:01.906Z,7.90
2018-12-31T02:38:46.378Z,7.90
2018-12-31T02:41:31.136Z,7.90
2018-12-31T02:44:15.883Z,8.00
2018-12-31T02:47:00.748Z,7.90
2018-12-31T02:49:45.480Z,7.90
2018-12-31T02:52:30.018Z,7.90
2018-12-31T02:55:14.682Z,7.90
2018-12-31T02:57:59.097Z,7.90
2018-12-31T03:00:43.823Z,7.90
2018-12-31T03:03:28.834Z,7.90
2018-12-31T03:06:13.857Z,7.90
2018-12-31T03:08:58.982Z,7.90
2018-12-31T03:11:43.927Z,8.00
2018-12-31T03:14:28.702Z,7.90
2018-12-31T03:17:13.563Z,7.90
2018-12-31T03:19:58.526Z,7.90
2018-12-31T03:22:43.208Z,7.90
2018-12-31T03:25:27.816Z,7.90
2018-12-31T03:28:12.337Z,7.90
2018-12-31T03:30:57.102Z,7.90
2018-12-31T03:33:41.505Z,7.90
2018-12-31T03:36:26.123Z,7.90
2018-12-31T03:39:10.742Z,7.90
2018-12-31T03:41:55.716Z,8.00
2018-12-31T03:44:40.256Z,8.00
2018-12-31T03:47:24.801Z,8.00
2018-12-31T03:50:09.360Z,8.10
2018-12-31T03:52:53.862Z,8.10
2018-12-31T03:55:38.578Z,8.10
2018-12-31T03:58:23.417Z,8.10
2018-12-31T04:01:08.017Z,8.10
2018-12-31T04:03:53.026Z,8.10
2018-12-31T04:06:37.793Z,8.10
2018-12-31T04:09:22.282Z,8.10
2018-12-31T04:12:06.917Z,8.10
2018-12-31T04:14:51.417Z,8.10
2018-12-31T04:17:36.145Z,8.10
2018-12-31T04:20:21.093Z,8.10
2018-12-31T04:23:05.904Z,8.10
2018-12-31T04:25:50.482Z,8.10
2018-12-31T04:28:34.881Z,8.10
2018-12-31T04:31:20.001Z,8.10
2018-12-31T04:34:04.511Z,8.20
2018-12-31T04:36:49.043Z,8.20
2018-12-31T04:39:33.702Z,8.20
2018-12-31T04:42:18.236Z,8.20
2018-12-31T04:45:03.569Z,8.20
2018-12-31T04:47:48.508Z,8.20
2018-12-31T04:50:33.109Z,8.20
2018-12-31T04:53:17.601Z,8.20
2018-12-31T04:56:02.455Z,8.20
2018-12-31T04:58:47.337Z,8.20
2018-12-31T05:01:32.061Z,8.20
2018-12-31T05:04:16.768Z,8.20
2018-12-31T05:07:01.586Z,8.20
2018-12-31T05:09:45.987Z,8.20
2018-12-31T05:12:30.611Z,8.20
2018-12-31T05:15:15.189Z,8.30
2018-12-31T05:17:59.803Z,8.20
2018-12-31T05:20:44.879Z,8.20
2018-12-31T05:23:29.381Z,8.30
2018-12-31T05:26:13.795Z,8.30
2018-12-31T05:28:58.488Z,8.20
2018-12-31T05:31:43.101Z,8.30
2018-12-31T05:34:27.432Z,8.30
2018-12-31T05:37:12.163Z,8.30
2018-12-31T05:39:56.621Z,8.20
2018-12-31T05:42:41.311Z,8.30
2018-12-31T05:45:26.053Z,8.30
2018-12-31T05:48:10.953Z,8.30
2018-12-31T05:50:55.563Z,8.30
2018-12-31T05:53:40.221Z,8.30
2018-12-31T05:56:24.775Z,8.20
2018-12-31T05:59:09.267Z,8.20
2018-12-31T06:01:53.806Z,8.30
2018-12-31T06:04:38.468Z,8.30
2018-12-31T06:07:23.153Z,8.30
2018-12-31T06:10:08.165Z,8.40
2018-12-31T06:12:54.817Z,8.40
2018-12-31T06:15:39.364Z,8.40
2018-12-31T06:18:23.906Z,8.40
2018-12-31T06:21:08.546Z,8.40
2018-12-31T06:23:53.143Z,8.40
2018-12-31T06:26:37.590Z,8.40
2018-12-31T06:29:22.197Z,8.40
2018-12-31T06:32:06.807Z,8.40
2018-12-31T06:34:51.673Z,8.40
2018-12-31T06:37:36.052Z,8.40
2018-12-31T06:40:20.645Z,8.40
2018-12-31T06:43:05.842Z,8.40
2018-12-31T06:45:50.552Z,8.40
2018-12-31T06:48:35.396Z,8.40
2018-12-31T06:51:20.204Z,8.40
2018-12-31T06:54:04.681Z,8.50
2018-12-31T06:56:49.155Z,8.50
2018-12-31T06:59:33.637Z,8.50
2018-12-31T07:02:18.206Z,8.50
2018-12-31T07:05:04.213Z,8.50
2018-12-31T07:07:49.052Z,8.50
2018-12-31T07:10:33.726Z,8.50
2018-12-31T07:13:18.731Z,8.50
2018-12-31T07:16:03.225Z,8.50
2018-12-31T07:18:47.815Z,8.50
2018-12-31T07:21:32.687Z,8.50
2018-12-31T07:24:17.541Z,8.50
2018-12-31T07:27:02.700Z,8.60
2018-12-31T07:29:47.611Z,8.60
2018-12-31T07:32:32.082Z,8.60
2018-12-31T07:35:16.650Z,8.60
2018-12-31T07:38:01.046Z,8.60
2018-12-31T07:40:45.545Z,8.60
2018-12-31T07:43:30.311Z,8.60
2018-12-31T07:46:14.721Z,8.60
2018-12-31T07:48:59.366Z,8.60
2018-12-31T07:51:43.875Z,8.60
2018-12-31T07:54:28.744Z,8.60
2018-12-31T07:57:13.689Z,8.70
2018-12-31T07:59:58.236Z,8.60
2018-12-31T08:02:42.737Z,8.70
2018-12-31T08:05:27.274Z,8.70
2018-12-31T08:08:11.862Z,8.70
2018-12-31T08:10:56.697Z,8.70
2018-12-31T08:13:41.481Z,8.70
2018-12-31T08:16:26.109Z,8.80
2018-12-31T08:19:10.635Z,8.80
2018-12-31T08:21:55.020Z,8.80
2018-12-31T08:24:39.841Z,8.80
2018-12-31T08:27:24.387Z,8.80
2018-12-31T08:30:09.752Z,8.80
2018-12-31T08:32:54.685Z,8.90
2018-12-31T08:35:39.803Z,8.90
2018-12-31T08:38:24.602Z,8.90
2018-12-31T08:41:09.511Z,8.90
2018-12-31T08:43:54.407Z,9.00
2018-12-31T08:46:39.310Z,9.00
2018-12-31T08:49:23.976Z,9.00
2018-12-31T08:52:08.412Z,9.10
2018-12-31T08:54:53.465Z,9.10
2018-12-31T08:57:38.267Z,9.00
2018-12-31T09:00:22.856Z,9.10
2018-12-31T09:03:07.926Z,9.10
2018-12-31T09:05:52.665Z,9.20
2018-12-31T09:08:37.455Z,9.20
2018-12-31T09:11:22.401Z,9.20
2018-12-31T09:14:06.979Z,9.20
2018-12-31T09:16:51.485Z,9.20
2018-12-31T09:19:36.070Z,9.30
2018-12-31T09:22:20.772Z,9.30
2018-12-31T09:25:05.915Z,9.30
2018-12-31T09:27:50.306Z,9.30
2018-12-31T09:30:34.952Z,9.40
2018-12-31T09:33:19.590Z,9.40
2018-12-31T09:36:04.307Z,9.50
2018-12-31T09:38:49.191Z,9.60
2018-12-31T09:41:34.219Z,9.60
2018-12-31T09:44:18.787Z,9.60
2018-12-31T09:47:03.938Z,9.60
2018-12-31T09:49:49.066Z,9.60
2018-12-31T09:52:33.606Z,9.70
2018-12-31T09:55:18.236Z,9.70
2018-12-31T09:58:02.828Z,9.80
2018-12-31T10:00:47.891Z,9.60
2018-12-31T10:03:32.360Z,9.60
2018-12-31T10:06:16.959Z,9.60
2018-12-31T10:09:01.487Z,9.60
2018-12-31T10:11:46.077Z,9.70
2018-12-31T10:14:31.131Z,9.90
2018-12-31T10:17:16.175Z,9.80
2018-12-31T10:20:01.610Z,9.90
2018-12-31T10:22:46.331Z,9.80
2018-12-31T10:25:31.070Z,9.90
2018-12-31T10:28:15.602Z,10.00
2018-12-31T10:31:00.306Z,10.00
2018-12-31T10:33:45.743Z,10.10
2018-12-31T10:36:30.344Z,10.20
2018-12-31T10:39:15.307Z,10.20
2018-12-31T10:41:59.907Z,10.20
2018-12-31T10:44:45.116Z,10.10
2018-12-31T10:47:29.996Z,10.20
2018-12-31T10:50:14.886Z,10.20
2018-12-31T10:52:59.601Z,10.20
2018-12-31T10:55:44.392Z,10.30
2018-12-31T10:58:29.330Z,10.30
2018-12-31T11:01:14.004Z,10.10
2018-12-31T11:03:58.865Z,10.10
2018-12-31T11:06:43.642Z,10.20
2018-12-31T11:09:28.653Z,10.20
2018-12-31T11:12:13.805Z,10.10
2018-12-31T11:14:58.906Z,10.00
2018-12-31T11:17:43.473Z,10.20
2018-12-31T11:20:28.209Z,10.30
2018-12-31T11:23:13.287Z,10.30
2018-12-31T11:25:58.175Z,10.30
2018-12-31T11:28:42.762Z,10.40
2018-12-31T11:31:30.416Z,10.40
2018-12-31T11:34:14.078Z,10.40
2018-12-31T11:36:58.974Z,10.40
2018-12-31T11:39:43.910Z,10.40
2018-12-31T11:42:28.586Z,10.40
2018-12-31T11:45:13.246Z,10.40
2018-12-31T11:47:57.925Z,10.40
2018-12-31T11:50:42.846Z,10.40
2018-12-31T11:53:27.365Z,10.30
2018-12-31T11:56:11.915Z,10.30
2018-12-31T11:58:56.625Z,10.20
2018-12-31T12:01:41.597Z,10.20
2018-12-31T12:04:26.757Z,10.10
2018-12-31T12:07:11.616Z,10.00
2018-12-31T12:09:56.496Z,10.00
2018-12-31T12:12:41.230Z,10.00
2018-12-31T12:15:25.781Z,10.10
2018-12-31T12:18:10.860Z,10.10
2018-12-31T12:20:56.145Z,10.20
2018-12-31T12:23:41.094Z,10.10
2018-12-31T12:26:26.076Z,10.00
2018-12-31T12:29:11.497Z,10.00
2018-12-31T12:31:56.624Z,10.00
2018-12-31T12:34:42.069Z,10.10
2018-12-31T12:37:27.325Z,10.00
2018-12-31T12:40:12.264Z,10.00
2018-12-31T12:42:57.420Z,10.00
2018-12-31T12:45:42.435Z,10.00
2018-12-31T12:48:27.766Z,10.00
2018-12-31T12:51:12.724Z,9.90
2018-12-31T12:53:57.692Z,9.90
2018-12-31T12:56:42.978Z,9.80
2018-12-31T12:59:27.745Z,9.90
2018-12-31T13:02:12.876Z,9.90
2018-12-31T13:05:03.513Z,9.90
2018-12-31T13:07:44.501Z,9.90
2018-12-31T13:10:29.656Z,9.90
2018-12-31T13:13:14.732Z,9.80
2018-12-31T13:15:59.600Z,9.90
2018-12-31T13:18:44.571Z,9.90
2018-12-31T13:21:29.945Z,9.90
2018-12-31T13:24:14.836Z,9.80
2018-12-31T13:27:00.061Z,9.80
2018-12-31T13:29:45.046Z,9.90
2018-12-31T13:32:30.027Z,9.90
2018-12-31T13:35:14.719Z,10.00
2018-12-31T13:37:59.948Z,9.90
2018-12-31T13:40:44.999Z,9.90
2018-12-31T13:43:30.159Z,9.90
2018-12-31T13:46:15.611Z,9.90
2018-12-31T13:49:00.864Z,9.90
2018-12-31T13:51:45.821Z,9.90
2018-12-31T13:54:31.031Z,9.90
2018-12-31T13:57:16.025Z,9.80
2018-12-31T14:00:01.154Z,9.80
2018-12-31T14:02:46.279Z,9.80
2018-12-31T14:05:31.446Z,9.80
2018-12-31T14:08:16.570Z,9.70
2018-12-31T14:11:02.001Z,9.80
2018-12-31T14:13:47.380Z,9.70
2018-12-31T14:16:32.529Z,9.70
2018-12-31T14:19:17.329Z,9.80
2018-12-31T14:22:02.621Z,9.80
2018-12-31T14:24:47.765Z,9.80
2018-12-31T14:27:32.714Z,9.80
2018-12-31T14:30:17.877Z,9.80
2018-12-31T14:33:02.721Z,9.80
2018-12-31T14:35:47.452Z,9.80
2018-12-31T14:38:32.739Z,9.80
2018-12-31T14:41:17.622Z,9.80
2018-12-31T14:44:02.865Z,9.80
2018-12-31T14:46:47.878Z,9.80
2018-12-31T14:49:32.956Z,9.80
2018-12-31T14:52:17.871Z,9.70
2018-12-31T14:55:03.448Z,9.70
2018-12-31T14:57:48.521Z,9.70
2018-12-31T15:00:33.776Z,9.70
2018-12-31T15:03:18.720Z,9.70
2018-12-31T15:06:04.042Z,9.70
2018-12-31T15:08:49.204Z,9.70
2018-12-31T15:11:34.238Z,9.70
2018-12-31T15:14:19.284Z,9.70
2018-12-31T15:17:04.655Z,9.70
2018-12-31T15:19:49.514Z,9.70
2018-12-31T15:22:34.904Z,9.70
2018-12-31T15:25:19.888Z,9.70
2018-12-31T15:28:04.932Z,9.70
2018-12-31T15:30:49.568Z,9.70
2018-12-31T15:33:34.897Z,9.60
2018-12-31T15:36:19.921Z,9.60
2018-12-31T15:39:05.519Z,9.60
2018-12-31T15:41:50.397Z,9.60
2018-12-31T15:44:35.361Z,9.60
2018-12-31T15:47:20.600Z,9.60
2018-12-31T15:50:05.664Z,9.60
2018-12-31T15:52:51.029Z,9.60
2018-12-31T15:55:35.989Z,9.60
2018-12-31T15:58:20.895Z,9.60
2018-12-31T16:01:05.931Z,9.70
2018-12-31T16:03:51.176Z,9.70
2018-12-31T16:06:36.513Z,9.60
2018-12-31T16:09:21.621Z,9.60
2018-12-31T16:12:06.687Z,9.60
2018-12-31T16:14:51.964Z,9.50
2018-12-31T16:17:36.884Z,9.50
2018-12-31T16:20:22.065Z,9.50
2018-12-31T16:23:07.110Z,9.50
2018-12-31T16:25:52.415Z,9.50
2018-12-31T16:28:37.185Z,9.50
2018-12-31T16:31:22.274Z,9.40
2018-12-31T16:34:07.437Z,9.40
2018-12-31T16:36:52.649Z,9.40
2018-12-31T16:39:37.938Z,9.40
2018-12-31T16:42:23.207Z,9.40
2018-12-31T16:45:08.055Z,9.40
2018-12-31T16:47:52.906Z,9.40
2018-12-31T16:50:37.826Z,9.40
2018-12-31T16:53:22.873Z,9.40
2018-12-31T16:56:07.989Z,9.30
2018-12-31T16:58:53.314Z,9.30
2018-12-31T17:01:38.325Z,9.40
2018-12-31T17:04:22.768Z,9.40
2018-12-31T17:07:07.479Z,9.40
2018-12-31T17:09:52.654Z,9.40
2018-12-31T17:12:37.528Z,9.30
2018-12-31T17:15:22.476Z,9.30
2018-12-31T17:18:07.441Z,9.30
2018-12-31T17:20:52.350Z,9.30
2018-12-31T17:23:37.329Z,9.30
2018-12-31T17:26:22.509Z,9.30
2018-12-31T17:29:07.279Z,9.30
2018-12-31T17:31:52.888Z,9.40
2018-12-31T17:34:38.114Z,9.30
2018-12-31T17:37:23.094Z,9.30
2018-12-31T17:40:08.251Z,9.30
2018-12-31T17:42:53.404Z,9.30
2018-12-31T17:45:38.407Z,9.30
2018-12-31T17:48:23.613Z,9.30
2018-12-31T17:51:08.403Z,9.30
2018-12-31T17:53:53.548Z,9.30
2018-12-31T17:56:38.655Z,9.30
2018-12-31T17:59:24.089Z,9.30
2018-12-31T18:02:08.770Z,9.30
2018-12-31T18:04:53.455Z,9.30
2018-12-31T18:07:38.403Z,9.30
2018-12-31T18:10:23.774Z,9.30
2018-12-31T18:13:08.394Z,9.30
2018-12-31T18:15:53.421Z,9.30
2018-12-31T18:18:38.666Z,9.30
2018-12-31T18:21:23.741Z,9.40
2018-12-31T18:24:08.784Z,9.30
2018-12-31T18:26:53.714Z,9.30
2018-12-31T18:29:39.006Z,9.30
2018-12-31T18:32:23.719Z,9.30
2018-12-31T18:35:08.366Z,9.20
2018-12-31T18:37:53.384Z,9.30
2018-12-31T18:40:38.306Z,9.30
2018-12-31T18:43:23.614Z,9.20
2018-12-31T18:46:08.274Z,9.20
2018-12-31T18:48:52.814Z,9.20
2018-12-31T18:51:37.638Z,9.30
2018-12-31T18:54:22.799Z,9.20
2018-12-31T18:57:07.498Z,9.20
2018-12-31T18:59:52.110Z,9.20
2018-12-31T19:02:37.120Z,9.20
2018-12-31T19:05:22.302Z,9.20
2018-12-31T19:08:07.351Z,9.20
2018-12-31T19:10:52.349Z,9.20
2018-12-31T19:13:37.154Z,9.20
2018-12-31T19:16:22.206Z,9.20
2018-12-31T19:19:06.615Z,9.20
2018-12-31T19:21:51.659Z,9.20
2018-12-31T19:24:36.346Z,9.20
2018-12-31T19:27:21.336Z,9.20
2018-12-31T19:30:06.501Z,9.20
2018-12-31T19:32:51.456Z,9.20
2018-12-31T19:35:36.477Z,9.30
2018-12-31T19:38:21.184Z,9.30
2018-12-31T19:41:06.036Z,9.20
2018-12-31T19:43:50.604Z,9.20
2018-12-31T19:46:35.666Z,9.20
2018-12-31T19:49:20.813Z,9.20
2018-12-31T19:52:05.633Z,9.20
2018-12-31T19:54:50.692Z,9.20
2018-12-31T19:57:35.743Z,9.20
2018-12-31T20:00:21.118Z,9.20
2018-12-31T20:03:06.055Z,9.20
2018-12-31T20:05:51.100Z,9.20
2018-12-31T20:08:36.223Z,9.20
2018-12-31T20:11:21.226Z,9.20
2018-12-31T20:14:05.770Z,9.20
2018-12-31T20:16:51.046Z,9.10
2018-12-31T20:19:36.058Z,9.20
2018-12-31T20:22:21.323Z,9.10
2018-12-31T20:25:06.514Z,9.10
2018-12-31T20:27:51.605Z,9.10
2018-12-31T20:30:35.991Z,9.20
2018-12-31T20:33:20.471Z,9.20
2018-12-31T20:36:05.137Z,9.20
2018-12-31T20:38:50.063Z,9.20
2018-12-31T20:41:35.138Z,9.20
2018-12-31T20:44:20.153Z,9.10
2018-12-31T20:47:05.315Z,9.10
2018-12-31T20:49:50.423Z,9.10
2018-12-31T20:52:35.608Z,9.00
2018-12-31T20:55:20.125Z,9.10
2018-12-31T20:58:04.680Z,9.10
2018-12-31T21:00:49.328Z,9.00
2018-12-31T21:03:34.066Z,9.10
2018-12-31T21:06:18.825Z,9.10
2018-12-31T21:09:05.169Z,9.00
2018-12-31T21:11:49.944Z,9.00
2018-12-31T21:14:34.873Z,9.00
2018-12-31T21:17:19.501Z,9.00
2018-12-31T21:20:06.481Z,8.90
2018-12-31T21:22:51.128Z,8.90
2018-12-31T21:25:35.763Z,8.80
2018-12-31T21:28:20.198Z,8.80
2018-12-31T21:31:04.917Z,8.80
2018-12-31T21:33:49.903Z,8.80
2018-12-31T21:36:34.548Z,8.80
2018-12-31T21:39:19.268Z,8.80
2018-12-31T21:42:04.311Z,8.80
2018-12-31T21:44:49.369Z,8.80
2018-12-31T21:47:34.644Z,8.70
2018-12-31T21:50:19.502Z,8.70
2018-12-31T21:53:04.478Z,8.70
2018-12-31T21:55:49.070Z,8.70
2018-12-31T21:58:34.692Z,8.70
2018-12-31T22:01:19.270Z,8.70
2018-12-31T22:04:04.514Z,8.60
2018-12-31T22:06:49.387Z,8.70
2018-12-31T22:09:34.074Z,8.60
2018-12-31T22:12:19.101Z,8.70
2018-12-31T22:15:06.145Z,8.70
2018-12-31T22:17:50.782Z,8.70
2018-12-31T22:20:36.474Z,8.60
2018-12-31T22:23:21.403Z,8.50
2018-12-31T22:26:06.037Z,8.50
2018-12-31T22:28:51.144Z,8.60
2018-12-31T22:31:36.062Z,8.50
2018-12-31T22:34:20.828Z,8.50
2018-12-31T22:37:05.342Z,8.50
2018-12-31T22:39:50.528Z,8.50
2018-12-31T22:42:35.708Z,8.50
2018-12-31T22:45:20.647Z,8.50
2018-12-31T22:48:05.706Z,8.50
2018-12-31T22:50:50.566Z,8.50
2018-12-31T22:53:35.249Z,8.50
2018-12-31T22:56:20.063Z,8.50
2018-12-31T22:59:04.686Z,8.50
2018-12-31T23:01:49.431Z,8.50
2018-12-31T23:04:34.281Z,8.50
2018-12-31T23:07:18.914Z,8.50
2018-12-31T23:10:06.693Z,8.50
2018-12-31T23:12:51.281Z,8.50
2018-12-31T23:15:36.231Z,8.50
2018-12-31T23:18:21.211Z,8.50
2018-12-31T23:21:06.549Z,8.50
2018-12-31T23:23:51.638Z,8.50
2018-12-31T23:26:36.931Z,8.40
2018-12-31T23:29:21.686Z,8.50
2018-12-31T23:32:06.371Z,8.50
2018-12-31T23:34:51.112Z,8.50
2018-12-31T23:37:36.695Z,8.50
2018-12-31T23:40:21.718Z,8.50
2018-12-31T23:43:06.861Z,8.50
2018-12-31T23:45:52.014Z,8.50
2018-12-31T23:48:37.534Z,8.50
2018-12-31T23:51:22.053Z,8.50
2018-12-31T23:54:06.654Z,8.50
2018-12-31T23:56:51.709Z,8.50
2018-12-31T23:59:36.276Z,8.40
